Time;durP1;ratioP1;P1;durP2;ratioP2;P2;SDS_P1;SDS_P2;PMS_P1;PMS_P2;Temp;Humidity;BMP_temperature;BMP_pressure;BME280_temperature;BME280_humidity;BME280_pressure;Samples;Min_cycle;Max_cycle;Signal;HPM_P1;HPM_P2
2020/12/12 00:01:34;;;;;;;53.80;21.23;;;0.10;99.90;;;;;;5026368;28;20515;-52
2020/12/12 00:03:59;;;;;;;46.47;20.90;;;0.10;99.90;;;;;;5025361;28;20428;-53
2020/12/12 00:06:25;;;;;;;42.13;18.50;;;0.10;99.90;;;;;;5018395;28;20197;-52
2020/12/12 00:08:51;;;;;;;42.70;18.93;;;0.10;99.90;;;;;;5019055;28;20463;-54
2020/12/12 00:11:20;;;;;;;42.73;19.50;;;0.10;99.90;;;;;;5027835;28;20304;-51
2020/12/12 00:13:46;;;;;;;44.53;20.63;;;0.10;99.90;;;;;;5025118;28;20253;-52
2020/12/12 00:16:15;;;;;;;41.27;18.50;;;0.10;99.90;;;;;;5027574;28;20991;-52
2020/12/12 00:18:41;;;;;;;43.13;19.13;;;0.10;99.90;;;;;;5026473;28;20220;-51
2020/12/12 00:21:07;;;;;;;43.13;20.83;;;0.10;99.90;;;;;;5030052;28;20906;-52
2020/12/12 00:23:33;;;;;;;37.77;18.60;;;0.10;99.90;;;;;;5020722;28;20432;-51
2020/12/12 00:25:58;;;;;;;43.00;19.27;;;0.10;99.90;;;;;;5020166;28;20179;-54
2020/12/12 00:28:24;;;;;;;42.70;20.00;;;0.10;99.90;;;;;;5023215;28;20818;-51
2020/12/12 00:30:50;;;;;;;47.70;22.73;;;0.10;99.90;;;;;;5027614;28;20456;-54
2020/12/12 00:33:16;;;;;;;41.30;19.03;;;0.10;99.90;;;;;;5023326;28;20201;-54
2020/12/12 00:35:41;;;;;;;43.60;18.90;;;0.10;99.90;;;;;;5021835;28;20240;-52
2020/12/12 00:38:07;;;;;;;43.63;20.20;;;0.10;99.90;;;;;;5027712;28;20208;-51
2020/12/12 00:40:32;;;;;;;45.63;20.43;;;0.10;99.90;;;;;;5023050;28;20206;-51
2020/12/12 00:42:58;;;;;;;45.03;20.07;;;0.10;99.90;;;;;;5018402;28;20295;-52
2020/12/12 00:45:24;;;;;;;43.47;19.77;;;0.10;99.90;;;;;;5010719;28;20178;-52
2020/12/12 00:47:49;;;;;;;42.20;20.13;;;0.10;99.90;;;;;;5026186;28;20703;-52
2020/12/12 00:50:18;;;;;;;48.40;20.80;;;0.20;99.90;;;;;;5029084;28;20242;-51
2020/12/12 00:52:44;;;;;;;45.87;20.50;;;0.20;99.90;;;;;;5004975;28;20187;-51
2020/12/12 00:55:10;;;;;;;44.80;18.97;;;0.20;99.90;;;;;;5024830;28;20502;-55
2020/12/12 00:57:36;;;;;;;40.83;19.37;;;0.30;99.90;;;;;;5019445;28;20456;-55
2020/12/12 01:00:03;;;;;;;43.87;19.67;;;0.30;99.90;;;;;;5028126;28;20478;-53
2020/12/12 01:02:28;;;;;;;46.00;19.60;;;0.30;99.90;;;;;;5022549;28;20317;-52
2020/12/12 01:04:54;;;;;;;39.50;19.90;;;0.30;99.90;;;;;;5025910;28;20527;-53
2020/12/12 01:07:23;;;;;;;44.13;19.50;;;0.30;99.90;;;;;;5020015;28;20675;-52
2020/12/12 01:09:49;;;;;;;44.33;19.10;;;0.40;99.90;;;;;;5014593;28;20182;-54
2020/12/12 01:12:17;;;;;;;44.43;19.23;;;0.30;99.90;;;;;;5025046;28;20469;-55
2020/12/12 01:14:43;;;;;;;40.60;19.10;;;0.40;99.90;;;;;;5019011;28;20412;-52
2020/12/12 01:17:09;;;;;;;38.87;18.27;;;0.40;99.90;;;;;;5025574;28;20543;-52
2020/12/12 01:19:34;;;;;;;45.97;20.77;;;0.40;99.90;;;;;;5009448;28;20695;-51
2020/12/12 01:22:00;;;;;;;38.40;17.63;;;0.40;99.90;;;;;;5028164;28;20590;-52
2020/12/12 01:24:25;;;;;;;41.73;18.17;;;0.40;99.90;;;;;;5028106;28;20189;-53
2020/12/12 01:26:51;;;;;;;45.50;19.87;;;0.40;99.90;;;;;;5007757;28;20687;-50
2020/12/12 01:29:17;;;;;;;42.97;20.80;;;0.40;99.90;;;;;;5026281;28;20237;-52
2020/12/12 01:31:47;;;;;;;43.57;18.50;;;0.30;99.90;;;;;;5028351;28;20177;-54
2020/12/12 01:34:13;;;;;;;43.57;20.20;;;0.40;99.90;;;;;;5023476;28;20193;-52
2020/12/12 01:36:39;;;;;;;40.73;18.57;;;0.40;99.90;;;;;;5021672;28;20549;-52
2020/12/12 01:39:05;;;;;;;41.17;18.37;;;0.40;99.90;;;;;;5027368;28;21047;-52
2020/12/12 01:41:30;;;;;;;37.40;17.40;;;0.40;99.90;;;;;;5026072;28;20184;-52
2020/12/12 01:43:56;;;;;;;40.63;19.23;;;0.40;99.90;;;;;;5025589;28;20272;-51
2020/12/12 01:46:25;;;;;;;40.97;17.00;;;0.50;99.90;;;;;;5020738;28;20189;-51
2020/12/12 01:48:53;;;;;;;37.47;18.20;;;0.40;99.90;;;;;;5026627;28;20550;-51
2020/12/12 01:51:20;;;;;;;35.50;17.03;;;0.50;99.90;;;;;;5027453;28;20435;-50
2020/12/12 01:53:48;;;;;;;40.50;18.43;;;0.50;99.90;;;;;;5023936;28;20491;-51
2020/12/12 01:56:15;;;;;;;43.80;18.70;;;0.50;99.90;;;;;;5016076;28;20454;-51
2020/12/12 01:58:41;;;;;;;36.47;16.47;;;0.60;99.90;;;;;;5024251;28;20558;-51
2020/12/12 02:01:10;;;;;;;39.57;17.10;;;0.60;99.90;;;;;;5026651;28;20494;-55
2020/12/12 02:03:43;;;;;;;33.07;15.63;;;0.70;99.90;;;;;;5031224;28;20441;-50
2020/12/12 02:06:13;;;;;;;33.40;15.00;;;0.80;99.90;;;;;;5024751;28;21689;-52
2020/12/12 02:08:40;;;;;;;34.40;14.90;;;0.90;99.90;;;;;;5028472;28;20487;-51
2020/12/12 02:11:12;;;;;;;33.37;14.53;;;1.00;99.90;;;;;;5026676;28;20432;-54
2020/12/12 02:13:39;;;;;;;33.57;14.10;;;1.00;99.90;;;;;;5019110;28;20843;-55
2020/12/12 02:16:04;;;;;;;28.70;15.10;;;1.10;99.90;;;;;;5026809;28;20954;-52
2020/12/12 02:18:30;;;;;;;29.47;14.57;;;1.10;99.90;;;;;;5007908;28;20523;-53
2020/12/12 02:21:00;;;;;;;30.67;13.90;;;1.10;99.90;;;;;;5028082;28;20555;-51
2020/12/12 02:23:27;;;;;;;27.70;13.60;;;1.20;99.90;;;;;;5027433;28;20194;-54
2020/12/12 02:25:55;;;;;;;34.00;16.07;;;1.20;99.90;;;;;;5021859;28;20544;-52
2020/12/12 02:28:26;;;;;;;28.00;13.47;;;1.30;99.90;;;;;;5024324;28;20495;-53
2020/12/12 02:30:52;;;;;;;29.47;13.73;;;1.20;99.90;;;;;;5032519;28;20949;-53
2020/12/12 02:33:18;;;;;;;27.60;13.70;;;1.30;99.90;;;;;;5028242;28;20531;-51
2020/12/12 02:35:45;;;;;;;28.00;13.53;;;1.30;99.90;;;;;;5031199;28;20199;-54
2020/12/12 02:38:11;;;;;;;28.90;13.93;;;1.30;99.90;;;;;;5032380;28;20452;-52
2020/12/12 02:40:38;;;;;;;32.20;14.27;;;1.30;99.90;;;;;;5024775;28;20506;-52
2020/12/12 02:43:12;;;;;;;34.50;15.87;;;1.30;99.90;;;;;;5030367;28;20447;-51
2020/12/12 02:45:39;;;;;;;32.00;13.90;;;1.30;99.90;;;;;;5028755;28;20436;-52
2020/12/12 02:48:06;;;;;;;26.80;13.67;;;1.30;99.90;;;;;;5028110;28;20862;-52
2020/12/12 02:50:32;;;;;;;28.17;12.73;;;1.30;99.90;;;;;;5008427;28;20427;-52
2020/12/12 02:52:58;;;;;;;22.77;12.03;;;1.30;99.90;;;;;;5020949;28;20425;-52
2020/12/12 02:55:24;;;;;;;28.37;14.20;;;1.30;99.90;;;;;;5009932;28;20557;-51
2020/12/12 02:57:49;;;;;;;25.77;12.90;;;1.30;99.90;;;;;;5028426;28;20219;-51
2020/12/12 03:00:18;;;;;;;28.40;13.10;;;1.30;99.90;;;;;;5028088;28;20237;-53
2020/12/12 03:02:44;;;;;;;22.33;11.33;;;1.30;99.90;;;;;;5029087;28;20169;-52
2020/12/12 03:05:09;;;;;;;25.43;13.27;;;1.30;99.90;;;;;;5026434;28;20417;-52
2020/12/12 03:07:35;;;;;;;20.27;11.13;;;1.30;99.90;;;;;;5027795;28;20437;-53
2020/12/12 03:10:05;;;;;;;25.00;11.43;;;1.30;99.90;;;;;;5028707;28;20295;-52
2020/12/12 03:12:36;;;;;;;22.73;10.83;;;1.40;99.90;;;;;;5021417;28;20513;-51
2020/12/12 03:15:06;;;;;;;22.20;11.33;;;1.40;99.90;;;;;;5029072;28;20432;-52
2020/12/12 03:17:32;;;;;;;19.60;10.43;;;1.40;99.90;;;;;;5030110;28;20444;-52
2020/12/12 03:19:57;;;;;;;20.60;11.10;;;1.50;99.90;;;;;;5027003;28;20475;-52
2020/12/12 03:22:23;;;;;;;19.17;10.90;;;1.40;99.90;;;;;;5023171;28;20189;-53
2020/12/12 03:24:49;;;;;;;19.73;9.77;;;1.40;99.90;;;;;;5027980;28;20440;-52
2020/12/12 03:27:14;;;;;;;20.10;10.20;;;1.50;99.90;;;;;;5022737;28;20177;-53
2020/12/12 03:29:40;;;;;;;20.27;10.30;;;1.50;99.90;;;;;;5029213;28;20194;-52
2020/12/12 03:32:08;;;;;;;19.20;9.97;;;1.50;99.90;;;;;;5010836;28;20186;-51
2020/12/12 03:34:37;;;;;;;16.60;9.17;;;1.50;99.90;;;;;;5021903;28;20183;-53
2020/12/12 03:37:04;;;;;;;18.00;8.73;;;1.60;99.90;;;;;;5027473;28;20487;-51
2020/12/12 03:39:30;;;;;;;17.97;8.77;;;1.60;99.90;;;;;;5029027;28;20471;-53
2020/12/12 03:41:56;;;;;;;18.80;8.40;;;1.60;99.90;;;;;;5030461;28;20408;-53
2020/12/12 03:44:22;;;;;;;13.70;8.10;;;1.60;99.90;;;;;;5026842;28;20612;-53
2020/12/12 03:46:48;;;;;;;13.93;7.80;;;1.70;99.90;;;;;;5030645;28;20676;-53
2020/12/12 03:49:13;;;;;;;14.13;7.67;;;1.70;99.90;;;;;;5030026;28;20480;-54
2020/12/12 03:51:39;;;;;;;12.47;7.80;;;1.70;99.90;;;;;;5032460;28;20192;-53
2020/12/12 03:54:05;;;;;;;15.57;7.47;;;1.70;99.90;;;;;;5027878;28;20969;-52
2020/12/12 03:56:31;;;;;;;14.03;7.83;;;1.80;99.90;;;;;;5028327;28;20611;-53
2020/12/12 03:58:56;;;;;;;13.37;7.00;;;1.80;99.90;;;;;;5029298;28;20750;-53
2020/12/12 04:01:22;;;;;;;13.60;7.27;;;1.80;99.90;;;;;;5028768;28;20186;-55
2020/12/12 04:03:48;;;;;;;14.83;7.03;;;1.80;99.90;;;;;;5019945;28;20522;-52
2020/12/12 04:06:13;;;;;;;12.80;6.93;;;1.90;99.90;;;;;;5030792;28;20720;-51
2020/12/12 04:08:39;;;;;;;16.47;7.97;;;1.90;99.90;;;;;;5030842;28;20217;-52
2020/12/12 04:11:04;;;;;;;15.27;7.87;;;1.90;99.90;;;;;;5012057;28;20197;-52
2020/12/12 04:13:30;;;;;;;12.43;7.90;;;1.90;99.90;;;;;;5027999;28;20205;-56
2020/12/12 04:15:56;;;;;;;13.77;7.70;;;1.90;99.90;;;;;;5032517;28;20671;-55
2020/12/12 04:18:22;;;;;;;14.93;8.37;;;1.90;99.90;;;;;;5024820;28;20522;-52
2020/12/12 04:20:48;;;;;;;13.37;8.27;;;1.90;99.90;;;;;;5019079;28;20177;-53
2020/12/12 04:23:14;;;;;;;14.37;8.50;;;1.90;99.90;;;;;;5029307;28;20174;-51
2020/12/12 04:25:40;;;;;;;16.27;8.30;;;1.90;99.90;;;;;;5026113;28;20695;-53
2020/12/12 04:28:06;;;;;;;18.07;8.80;;;1.90;99.90;;;;;;5024997;28;20460;-51
2020/12/12 04:30:32;;;;;;;15.17;7.73;;;1.90;99.90;;;;;;5028888;28;20495;-51
2020/12/12 04:32:58;;;;;;;17.70;8.70;;;1.90;99.90;;;;;;5025291;28;20432;-51
2020/12/12 04:35:23;;;;;;;15.87;8.47;;;1.90;99.90;;;;;;5009953;28;20444;-53
2020/12/12 04:37:49;;;;;;;14.77;8.33;;;1.80;99.90;;;;;;5028973;28;20206;-51
2020/12/12 04:40:15;;;;;;;13.33;8.00;;;1.80;99.90;;;;;;5027918;28;20670;-53
2020/12/12 04:42:42;;;;;;;15.33;8.43;;;1.80;99.90;;;;;;5027299;28;20449;-53
2020/12/12 04:45:12;;;;;;;16.63;9.30;;;1.80;99.90;;;;;;5034107;28;20432;-53
2020/12/12 04:47:43;;;;;;;14.10;7.77;;;1.80;99.90;;;;;;5029030;28;20451;-54
2020/12/12 04:50:12;;;;;;;14.30;8.10;;;1.80;99.90;;;;;;5028732;28;20432;-53
2020/12/12 04:52:41;;;;;;;15.73;8.63;;;1.80;99.90;;;;;;5030211;28;20965;-54
2020/12/12 04:55:06;;;;;;;15.83;8.70;;;1.80;99.90;;;;;;5028429;28;20458;-54
2020/12/12 04:57:36;;;;;;;16.47;9.40;;;1.80;99.90;;;;;;5028259;28;20961;-51
2020/12/12 05:00:10;;;;;;;16.03;9.50;;;1.80;99.90;;;;;;5027021;28;20248;-52
2020/12/12 05:02:37;;;;;;;19.67;10.20;;;1.80;99.90;;;;;;5025490;28;20968;-52
2020/12/12 05:05:04;;;;;;;17.10;9.73;;;1.80;99.90;;;;;;5027302;28;20499;-50
2020/12/12 05:07:30;;;;;;;15.30;9.03;;;1.80;99.90;;;;;;5031343;28;20466;-53
2020/12/12 05:09:55;;;;;;;16.27;9.50;;;1.80;99.90;;;;;;5027821;28;20529;-54
2020/12/12 05:12:22;;;;;;;15.50;9.10;;;1.80;99.90;;;;;;5017350;28;20564;-52
2020/12/12 05:14:51;;;;;;;16.83;9.30;;;1.80;99.90;;;;;;5028908;28;20198;-52
2020/12/12 05:17:19;;;;;;;18.50;9.63;;;1.80;99.90;;;;;;5028850;28;20858;-52
2020/12/12 05:19:51;;;;;;;14.33;8.20;;;1.80;99.90;;;;;;5025934;28;20538;-50
2020/12/12 05:22:17;;;;;;;15.90;8.60;;;1.80;99.90;;;;;;5025606;28;20447;-51
2020/12/12 05:24:44;;;;;;;13.57;8.33;;;1.80;99.90;;;;;;5007343;28;20479;-51
2020/12/12 05:27:10;;;;;;;19.30;9.63;;;1.80;99.90;;;;;;5006541;28;20613;-51
2020/12/12 05:29:36;;;;;;;12.30;8.00;;;1.80;99.90;;;;;;5025681;28;20454;-50
2020/12/12 05:32:02;;;;;;;13.87;8.60;;;1.80;99.90;;;;;;5024011;28;20436;-50
2020/12/12 05:34:28;;;;;;;14.10;8.13;;;1.80;99.90;;;;;;5009536;28;20954;-52
2020/12/12 05:36:54;;;;;;;13.60;7.80;;;1.80;99.90;;;;;;5021818;28;20439;-54
2020/12/12 05:39:21;;;;;;;16.17;9.47;;;1.80;99.90;;;;;;5015817;28;20216;-53
2020/12/12 05:41:48;;;;;;;15.10;8.40;;;1.80;99.90;;;;;;5027054;28;20409;-53
2020/12/12 05:44:16;;;;;;;14.00;8.07;;;1.80;99.90;;;;;;5023953;28;20816;-52
2020/12/12 05:46:43;;;;;;;14.90;8.27;;;1.80;99.90;;;;;;5026556;28;20495;-52
2020/12/12 05:49:08;;;;;;;14.73;8.80;;;1.80;99.90;;;;;;5026057;28;20535;-54
2020/12/12 05:51:34;;;;;;;15.30;8.50;;;1.80;99.90;;;;;;5017376;28;20973;-51
2020/12/12 05:54:00;;;;;;;12.13;8.00;;;1.80;99.90;;;;;;5027268;28;20524;-52
2020/12/12 05:56:30;;;;;;;13.77;8.03;;;1.90;99.90;;;;;;5027225;28;20288;-51
2020/12/12 05:58:56;;;;;;;15.13;8.87;;;1.90;99.90;;;;;;5030457;28;20477;-53
2020/12/12 06:01:27;;;;;;;13.47;8.57;;;1.80;99.90;;;;;;5029335;28;20477;-52
2020/12/12 06:04:03;;;;;;;15.70;9.13;;;1.90;99.90;;;;;;5028253;28;20674;-54
2020/12/12 06:06:30;;;;;;;11.70;8.10;;;1.80;99.90;;;;;;5030141;28;20509;-51
2020/12/12 06:09:08;;;;;;;14.60;7.90;;;1.80;99.90;;;;;;5027532;28;20534;-52
2020/12/12 06:11:39;;;;;;;16.47;8.73;;;1.90;99.90;;;;;;5032802;28;20434;-52
2020/12/12 06:14:05;;;;;;;16.40;9.40;;;1.90;99.90;;;;;;5017196;28;20434;-52
2020/12/12 06:16:33;;;;;;;13.80;8.70;;;1.90;99.90;;;;;;5023387;28;20490;-53
2020/12/12 06:19:16;;;;;;;17.33;9.50;;;1.90;99.90;;;;;;5024500;28;20538;-53
2020/12/12 06:21:47;;;;;;;22.50;11.77;;;1.90;99.90;;;;;;5025535;28;20475;-51
2020/12/12 06:24:14;;;;;;;18.27;9.60;;;1.90;99.90;;;;;;5026815;28;20425;-53
2020/12/12 06:27:00;;;;;;;17.10;9.80;;;1.80;99.90;;;;;;5017918;28;21289;-52
2020/12/12 06:29:29;;;;;;;16.30;9.70;;;1.90;99.90;;;;;;5025345;28;20458;-52
2020/12/12 06:31:55;;;;;;;17.03;9.47;;;1.90;99.90;;;;;;5027997;28;20466;-52
2020/12/12 06:34:40;;;;;;;15.87;8.73;;;1.90;99.90;;;;;;5024197;28;20468;-53
2020/12/12 06:37:06;;;;;;;18.33;9.30;;;1.80;99.90;;;;;;5029991;28;20432;-52
2020/12/12 06:39:43;;;;;;;18.20;9.60;;;1.90;99.90;;;;;;5025628;28;21563;-53
2020/12/12 06:42:40;;;;;;;16.40;8.20;;;1.80;99.90;;;;;;5027268;28;20189;-54
2020/12/12 06:45:14;;;;;;;15.13;8.77;;;1.90;99.90;;;;;;5032655;28;20560;-53
2020/12/12 06:47:42;;;;;;;15.03;8.43;;;1.90;99.90;;;;;;5030534;28;20457;-54
2020/12/12 06:50:22;;;;;;;17.87;9.50;;;1.90;99.90;;;;;;5034332;28;20573;-54
2020/12/12 06:52:49;;;;;;;13.30;8.30;;;1.90;99.90;;;;;;5048176;28;20420;-52
2020/12/12 06:55:18;;;;;;;15.10;8.63;;;1.90;99.90;;;;;;5031928;28;20648;-52
2020/12/12 06:57:46;;;;;;;14.10;8.70;;;1.90;99.90;;;;;;5025637;28;20468;-53
2020/12/12 07:00:28;;;;;;;15.33;8.87;;;1.90;99.90;;;;;;5028869;28;20841;-55
2020/12/12 07:02:58;;;;;;;16.00;8.50;;;1.90;99.90;;;;;;5025701;28;20528;-53
2020/12/12 07:05:26;;;;;;;17.63;9.43;;;1.90;99.90;;;;;;5026950;28;20433;-53
2020/12/12 07:07:52;;;;;;;15.60;8.77;;;1.90;99.90;;;;;;5018281;28;21248;-54
2020/12/12 07:10:18;;;;;;;14.33;8.60;;;1.90;99.90;;;;;;5024817;28;20453;-54
2020/12/12 07:12:44;;;;;;;13.50;8.30;;;1.90;99.90;;;;;;5023141;28;20546;-56
2020/12/12 07:15:10;;;;;;;14.97;8.13;;;1.90;99.90;;;;;;5029358;28;20540;-56
2020/12/12 07:17:36;;;;;;;14.50;8.70;;;1.90;99.90;;;;;;5028175;28;20857;-56
2020/12/12 07:20:03;;;;;;;15.43;8.30;;;1.90;99.90;;;;;;5029824;28;20197;-56
2020/12/12 07:22:29;;;;;;;15.80;8.73;;;1.90;99.90;;;;;;5024684;28;20734;-55
2020/12/12 07:24:57;;;;;;;17.60;9.80;;;1.90;99.90;;;;;;5025331;28;20463;-56
2020/12/12 07:27:23;;;;;;;16.27;8.30;;;2.00;99.90;;;;;;5024760;28;20961;-56
2020/12/12 07:29:48;;;;;;;15.00;8.80;;;2.00;99.90;;;;;;5023646;28;20442;-57
2020/12/12 07:32:15;;;;;;;16.00;9.60;;;2.00;99.90;;;;;;5002555;28;20188;-57
2020/12/12 07:34:40;;;;;;;21.57;9.30;;;2.00;99.90;;;;;;5024041;28;20488;-57
2020/12/12 07:37:08;;;;;;;18.77;9.93;;;2.00;99.90;;;;;;5026282;28;20983;-57
2020/12/12 07:39:39;;;;;;;17.67;9.00;;;1.90;99.90;;;;;;5026589;28;20286;-55
2020/12/12 07:42:08;;;;;;;19.10;9.33;;;1.90;99.90;;;;;;5027578;28;20429;-56
2020/12/12 07:44:34;;;;;;;17.60;9.23;;;1.90;99.90;;;;;;5028954;28;20465;-55
2020/12/12 07:47:04;;;;;;;18.10;8.47;;;1.90;99.90;;;;;;5028942;28;20440;-55
2020/12/12 07:49:33;;;;;;;18.00;9.57;;;1.90;99.90;;;;;;5029873;28;20450;-55
2020/12/12 07:52:18;;;;;;;13.00;8.30;;;1.90;99.90;;;;;;5026810;28;20511;-56
2020/12/12 07:55:03;;;;;;;16.27;9.07;;;1.90;99.90;;;;;;5025684;28;20436;-57
2020/12/12 07:57:30;;;;;;;15.83;8.20;;;2.00;99.90;;;;;;5022669;28;20580;-56
2020/12/12 08:00:10;;;;;;;21.63;10.13;;;1.90;99.90;;;;;;5021446;28;20452;-55
2020/12/12 08:02:37;;;;;;;19.10;9.60;;;1.90;99.90;;;;;;5018842;28;20425;-56
2020/12/12 08:05:05;;;;;;;17.40;8.77;;;1.90;99.90;;;;;;5024653;28;20432;-54
2020/12/12 08:07:35;;;;;;;17.27;9.70;;;1.90;99.90;;;;;;5027598;28;20447;-57
2020/12/12 08:10:05;;;;;;;14.50;8.17;;;1.90;99.90;;;;;;5027057;28;20464;-54
2020/12/12 08:12:34;;;;;;;13.37;8.30;;;1.90;99.90;;;;;;5023224;28;21848;-54
2020/12/12 08:15:06;;;;;;;12.97;8.00;;;1.90;99.90;;;;;;5016479;28;20472;-55
2020/12/12 08:17:33;;;;;;;12.53;7.80;;;2.00;99.90;;;;;;5025909;28;20433;-56
2020/12/12 08:20:00;;;;;;;14.20;7.93;;;2.00;99.90;;;;;;5027894;28;20465;-55
2020/12/12 08:22:26;;;;;;;11.20;6.90;;;2.00;99.90;;;;;;5026574;28;20971;-56
2020/12/12 08:24:52;;;;;;;11.37;6.40;;;2.00;99.90;;;;;;5020949;28;20843;-57
2020/12/12 08:27:28;;;;;;;8.70;5.73;;;2.00;99.90;;;;;;5018394;28;20429;-55
2020/12/12 08:29:56;;;;;;;10.27;6.30;;;2.00;99.90;;;;;;5020096;28;20517;-54
2020/12/12 08:32:38;;;;;;;8.10;5.90;;;2.10;99.90;;;;;;5014267;28;20594;-55
2020/12/12 08:35:22;;;;;;;10.83;6.50;;;2.10;99.90;;;;;;5026638;28;20458;-56
2020/12/12 08:38:06;;;;;;;10.70;6.80;;;2.10;99.90;;;;;;5022278;28;20464;-58
2020/12/12 08:40:51;;;;;;;13.70;7.53;;;2.20;99.90;;;;;;5012812;28;20522;-56
2020/12/12 08:43:17;;;;;;;8.47;5.53;;;2.20;99.90;;;;;;5016193;28;20434;-56
2020/12/12 08:45:54;;;;;;;8.83;5.70;;;2.30;99.90;;;;;;5018761;28;20439;-56
2020/12/12 08:48:21;;;;;;;10.27;5.93;;;2.30;99.90;;;;;;5017316;28;20544;-56
2020/12/12 08:50:49;;;;;;;8.63;4.97;;;2.40;99.90;;;;;;5015693;28;20725;-55
2020/12/12 08:53:21;;;;;;;8.70;5.30;;;2.40;99.90;;;;;;5013241;28;20424;-57
2020/12/12 08:56:22;;;;;;;7.50;5.23;;;2.40;99.90;;;;;;5015869;28;20424;-58
2020/12/12 08:58:51;;;;;;;8.23;5.03;;;2.50;99.90;;;;;;5012662;28;20476;-55
2020/12/12 09:01:17;;;;;;;7.00;4.60;;;2.50;99.90;;;;;;5014680;28;20431;-55
2020/12/12 09:04:02;;;;;;;6.87;4.80;;;2.50;99.90;;;;;;4999678;28;20548;-55
2020/12/12 09:06:34;;;;;;;5.53;3.73;;;2.50;99.90;;;;;;5013490;28;20176;-55
2020/12/12 09:09:10;;;;;;;9.60;4.93;;;2.60;99.90;;;;;;5015393;28;20868;-55
2020/12/12 09:11:37;;;;;;;6.30;4.63;;;2.60;99.90;;;;;;5011931;28;20477;-54
2020/12/12 09:14:03;;;;;;;5.20;4.20;;;2.60;99.90;;;;;;5018226;28;20423;-54
2020/12/12 09:16:29;;;;;;;7.27;4.60;;;2.60;99.90;;;;;;5017623;28;20439;-53
2020/12/12 09:18:56;;;;;;;6.80;4.20;;;2.70;99.90;;;;;;5018096;28;20821;-57
2020/12/12 09:21:22;;;;;;;6.33;4.30;;;2.70;99.90;;;;;;5017321;28;20207;-56
2020/12/12 09:23:47;;;;;;;8.83;5.30;;;2.70;99.90;;;;;;5019424;28;20420;-55
2020/12/12 09:26:13;;;;;;;9.37;6.03;;;2.70;99.90;;;;;;5014654;28;20565;-56
2020/12/12 09:28:39;;;;;;;9.60;5.93;;;2.70;99.90;;;;;;5015465;28;20223;-55
2020/12/12 09:31:05;;;;;;;12.63;7.13;;;2.80;99.90;;;;;;4999724;28;20187;-56
2020/12/12 09:33:31;;;;;;;8.20;5.00;;;2.80;99.90;;;;;;5012811;28;20541;-55
2020/12/12 09:35:57;;;;;;;6.80;5.00;;;2.80;99.90;;;;;;5021964;28;20423;-55
2020/12/12 09:38:23;;;;;;;7.60;4.90;;;2.90;99.90;;;;;;5024104;28;20970;-54
2020/12/12 09:40:52;;;;;;;8.97;5.63;;;2.90;99.90;;;;;;5017817;28;22416;-54
2020/12/12 09:43:19;;;;;;;6.50;4.50;;;3.00;99.90;;;;;;5019670;28;20174;-55
2020/12/12 09:45:46;;;;;;;7.20;4.87;;;3.00;99.90;;;;;;5016479;28;20472;-54
2020/12/12 09:48:12;;;;;;;7.23;5.13;;;3.10;99.90;;;;;;4999912;28;21027;-54
2020/12/12 09:50:38;;;;;;;8.63;5.50;;;3.20;99.90;;;;;;5012389;28;20422;-54
2020/12/12 09:53:06;;;;;;;5.90;4.47;;;3.20;99.90;;;;;;5015849;28;20423;-55
2020/12/12 09:55:34;;;;;;;4.30;3.60;;;3.30;99.90;;;;;;5020373;28;20484;-55
2020/12/12 09:58:00;;;;;;;5.30;4.00;;;3.30;99.90;;;;;;5015649;28;21066;-56
2020/12/12 10:00:26;;;;;;;6.97;4.30;;;3.30;99.90;;;;;;5018022;28;20492;-55
2020/12/12 10:02:52;;;;;;;5.80;3.93;;;3.30;99.90;;;;;;5017254;28;20475;-52
2020/12/12 10:05:19;;;;;;;5.40;3.80;;;3.40;99.90;;;;;;5017296;28;20434;-55
2020/12/12 10:07:45;;;;;;;6.30;4.33;;;3.40;99.90;;;;;;5019107;28;20468;-57
2020/12/12 10:10:11;;;;;;;7.00;3.90;;;3.40;99.90;;;;;;5014219;28;21169;-54
2020/12/12 10:12:36;;;;;;;6.77;4.73;;;3.40;99.90;;;;;;5011684;28;20423;-54
2020/12/12 10:15:03;;;;;;;6.60;4.60;;;3.40;99.90;;;;;;5012391;28;20209;-54
2020/12/12 10:17:30;;;;;;;8.13;4.67;;;3.40;99.90;;;;;;5011484;28;20237;-55
2020/12/12 10:19:57;;;;;;;12.07;5.97;;;3.40;99.90;;;;;;5017295;28;20501;-58
2020/12/12 10:22:22;;;;;;;12.10;6.23;;;3.50;99.90;;;;;;5014707;28;20467;-56
2020/12/12 10:24:48;;;;;;;13.60;5.57;;;3.50;99.90;;;;;;5015959;28;20592;-56
2020/12/12 10:27:14;;;;;;;7.70;4.97;;;3.50;99.90;;;;;;5013607;28;20187;-56
2020/12/12 10:29:39;;;;;;;9.13;6.10;;;3.60;99.90;;;;;;5012698;28;20302;-57
2020/12/12 10:32:05;;;;;;;8.60;5.63;;;3.60;99.90;;;;;;5010068;28;20606;-55
2020/12/12 10:34:31;;;;;;;8.93;5.37;;;3.70;99.90;;;;;;5017710;28;20475;-56
2020/12/12 10:36:57;;;;;;;13.30;6.60;;;3.80;99.90;;;;;;5015946;28;20266;-55
2020/12/12 10:39:29;;;;;;;14.23;7.10;;;3.90;99.90;;;;;;5000052;28;20254;-55
2020/12/12 10:41:57;;;;;;;14.27;7.00;;;4.00;99.90;;;;;;5019196;28;20166;-54
2020/12/12 10:44:23;;;;;;;10.60;6.43;;;4.00;99.90;;;;;;4995965;28;20957;-58
2020/12/12 10:46:48;;;;;;;11.67;6.40;;;4.10;99.90;;;;;;5000095;28;20448;-56
2020/12/12 10:49:14;;;;;;;11.43;5.90;;;4.10;99.90;;;;;;5019876;28;20212;-55
2020/12/12 10:51:46;;;;;;;11.07;6.33;;;4.10;99.90;;;;;;5018199;28;20195;-55
2020/12/12 10:54:12;;;;;;;9.03;5.23;;;4.20;99.90;;;;;;5026883;28;20431;-56
2020/12/12 10:56:40;;;;;;;10.67;5.83;;;4.20;99.90;;;;;;5017627;28;20434;-56
2020/12/12 10:59:06;;;;;;;8.70;5.90;;;4.20;99.90;;;;;;5021765;28;20465;-56
2020/12/12 11:01:32;;;;;;;8.53;5.33;;;4.20;99.90;;;;;;5026067;28;21030;-55
2020/12/12 11:03:57;;;;;;;10.40;5.67;;;4.30;99.90;;;;;;5018271;28;20184;-58
2020/12/12 11:06:23;;;;;;;7.20;4.67;;;4.30;99.90;;;;;;5015643;28;20563;-59
2020/12/12 11:08:49;;;;;;;8.30;5.20;;;4.40;99.90;;;;;;5026266;28;20697;-57
2020/12/12 11:11:15;;;;;;;10.23;6.33;;;4.40;99.90;;;;;;5019777;28;20261;-58
2020/12/12 11:13:41;;;;;;;9.63;5.20;;;4.40;99.90;;;;;;5014368;28;20438;-58
2020/12/12 11:16:07;;;;;;;7.37;4.80;;;4.40;99.90;;;;;;5015243;28;21159;-58
2020/12/12 11:18:32;;;;;;;9.40;5.10;;;4.50;99.90;;;;;;5015601;28;20462;-57
2020/12/12 11:20:58;;;;;;;6.27;4.50;;;4.50;99.90;;;;;;5021566;28;20282;-57
2020/12/12 11:23:24;;;;;;;8.30;5.17;;;4.50;99.90;;;;;;5022891;28;20184;-56
2020/12/12 11:25:49;;;;;;;5.00;4.03;;;4.50;99.90;;;;;;5022939;28;20249;-56
2020/12/12 11:28:15;;;;;;;11.70;4.80;;;4.50;99.90;;;;;;5023168;28;20211;-56
2020/12/12 11:30:41;;;;;;;6.73;4.60;;;4.60;99.90;;;;;;5015742;28;20189;-57
2020/12/12 11:33:07;;;;;;;8.90;4.90;;;4.60;99.90;;;;;;5016582;28;20191;-58
2020/12/12 11:35:42;;;;;;;9.83;5.37;;;4.70;99.90;;;;;;5019420;28;20214;-55
2020/12/12 11:38:23;;;;;;;8.30;4.70;;;4.80;99.90;;;;;;5025676;28;20456;-54
2020/12/12 11:40:58;;;;;;;8.10;4.87;;;4.80;99.90;;;;;;5011467;28;20469;-56
2020/12/12 11:44:16;;;;;;;8.53;5.23;;;4.80;99.90;;;;;;5014951;28;20440;-57
2020/12/12 11:48:51;;;;;;;9.40;5.00;;;4.70;99.90;;;;;;5019989;28;20478;-56
2020/12/12 11:51:16;;;;;;;7.83;5.10;;;4.70;99.90;;;;;;5017431;28;20470;-56
2020/12/12 11:53:42;;;;;;;8.97;5.00;;;4.60;99.90;;;;;;5007346;28;20863;-57
2020/12/12 11:56:08;;;;;;;8.00;4.97;;;4.60;99.90;;;;;;5025871;28;20278;-56
2020/12/12 11:58:33;;;;;;;11.43;5.27;;;4.50;99.90;;;;;;5022453;28;20900;-56
2020/12/12 12:01:00;;;;;;;9.77;5.47;;;4.50;99.90;;;;;;5020986;28;20190;-58
2020/12/12 12:03:26;;;;;;;5.67;4.40;;;4.50;99.90;;;;;;5030157;28;20673;-58
2020/12/12 12:05:52;;;;;;;6.73;4.40;;;4.50;99.90;;;;;;5020562;28;20767;-57
2020/12/12 12:13:34;;;;;;;10.60;5.03;;;4.40;99.90;;;;;;5032759;28;20448;-57
2020/12/12 12:16:00;;;;;;;9.10;5.40;;;4.40;99.90;;;;;;5023916;28;20229;-58
2020/12/12 12:18:26;;;;;;;8.20;5.60;;;4.40;99.90;;;;;;5020498;28;20446;-60
2020/12/12 12:21:04;;;;;;;7.50;5.00;;;4.40;99.90;;;;;;5019894;28;20879;-57
2020/12/12 12:23:31;;;;;;;13.80;6.27;;;4.40;99.90;;;;;;5031399;28;20785;-59
2020/12/12 12:25:57;;;;;;;9.87;5.70;;;4.40;99.90;;;;;;5025335;28;21742;-57
2020/12/12 12:28:23;;;;;;;7.37;5.37;;;4.40;99.90;;;;;;5023198;28;20489;-58
2020/12/12 12:30:49;;;;;;;12.20;6.97;;;4.40;99.90;;;;;;5027345;28;20948;-59
2020/12/12 12:33:14;;;;;;;11.63;6.70;;;4.40;99.90;;;;;;5020677;28;20184;-56
2020/12/12 12:35:40;;;;;;;8.97;5.17;;;4.40;99.90;;;;;;5018716;28;20434;-57
2020/12/12 12:38:06;;;;;;;11.90;6.03;;;4.40;99.90;;;;;;5027844;28;20205;-55
2020/12/12 12:40:32;;;;;;;10.07;6.47;;;4.40;99.90;;;;;;5024596;28;20219;-57
2020/12/12 12:42:58;;;;;;;9.00;4.80;;;4.40;99.90;;;;;;5026593;28;20290;-56
2020/12/12 12:45:25;;;;;;;8.23;5.00;;;4.40;99.90;;;;;;5021073;28;20446;-58
2020/12/12 12:47:50;;;;;;;8.70;5.00;;;4.40;99.90;;;;;;5022069;28;20446;-57
2020/12/12 12:50:16;;;;;;;7.13;4.70;;;4.40;99.90;;;;;;5016589;28;20464;-55
2020/12/12 12:52:42;;;;;;;8.83;5.37;;;4.40;99.90;;;;;;5018498;28;20650;-58
2020/12/12 12:55:09;;;;;;;7.00;5.20;;;4.40;99.90;;;;;;5022600;28;20512;-57
2020/12/12 12:57:35;;;;;;;10.20;6.00;;;4.40;99.90;;;;;;5018140;28;20975;-55